createdAt,value
2018-11-10T00:00:10.523Z,134.00
2018-11-10T00:01:10.497Z,139.20
2018-11-10T00:02:10.471Z,141.50
2018-11-10T00:03:10.449Z,127.50
2018-11-10T00:04:10.470Z,110.20
2018-11-10T00:05:10.398Z,109.40
2018-11-10T00:06:10.375Z,107.50
2018-11-10T00:07:10.350Z,110.90
2018-11-10T00:08:10.362Z,109.50
2018-11-10T00:09:10.300Z,112.90
2018-11-10T00:10:10.277Z,120.50
2018-11-10T00:11:10.251Z,121.70
2018-11-10T00:12:10.229Z,145.40
2018-11-10T00:13:10.203Z,282.50
2018-11-10T00:14:10.180Z,223.70
2018-11-10T00:15:10.154Z,270.80
2018-11-10T00:16:10.130Z,185.10
2018-11-10T00:17:10.105Z,226.70
2018-11-10T00:18:10.081Z,176.70
2018-11-10T00:19:10.057Z,171.90
2018-11-10T00:20:10.033Z,167.90
2018-11-10T00:21:10.008Z,152.20
2018-11-10T00:22:09.985Z,165.40
2018-11-10T00:23:09.960Z,137.30
2018-11-10T00:24:09.935Z,136.20
2018-11-10T00:25:09.911Z,130.10
2018-11-10T00:26:09.887Z,115.50
2018-11-10T00:27:09.865Z,122.70
2018-11-10T00:28:09.839Z,119.80
2018-11-10T00:29:09.813Z,129.40
2018-11-10T00:30:09.789Z,131.10
2018-11-10T00:31:09.766Z,130.40
2018-11-10T00:32:09.741Z,137.00
2018-11-10T00:33:09.718Z,193.70
2018-11-10T00:34:09.694Z,153.90
2018-11-10T00:35:09.669Z,189.10
2018-11-10T00:36:09.645Z,256.00
2018-11-10T00:37:09.619Z,203.80
2018-11-10T00:38:09.595Z,215.70
2018-11-10T00:39:09.571Z,221.70
2018-11-10T00:40:09.548Z,226.10
2018-11-10T00:41:09.522Z,202.60
2018-11-10T00:42:09.499Z,275.50
2018-11-10T00:43:09.474Z,227.70
2018-11-10T00:44:09.451Z,210.70
2018-11-10T00:45:09.426Z,320.60
2018-11-10T00:46:09.401Z,241.90
2018-11-10T00:47:09.380Z,262.70
2018-11-10T00:48:09.353Z,246.90
2018-11-10T00:49:09.328Z,280.20
2018-11-10T00:50:09.303Z,224.20
2018-11-10T00:51:09.280Z,218.70
2018-11-10T00:52:09.256Z,192.00
2018-11-10T00:53:09.231Z,227.80
2018-11-10T00:54:09.208Z,169.40
2018-11-10T00:55:09.184Z,165.90
2018-11-10T00:56:09.160Z,180.90
2018-11-10T00:57:09.133Z,154.60
2018-11-10T00:58:09.109Z,208.00
2018-11-10T00:59:09.085Z,237.60
2018-11-10T01:00:09.061Z,186.60
2018-11-10T01:01:09.036Z,177.40
2018-11-10T01:02:09.012Z,169.70
2018-11-10T01:03:08.987Z,167.40
2018-11-10T01:04:09.714Z,165.00
2018-11-10T01:05:08.939Z,170.60
2018-11-10T01:06:08.915Z,222.90
2018-11-10T01:07:08.891Z,203.40
2018-11-10T01:08:08.866Z,195.20
2018-11-10T01:09:08.841Z,195.80
2018-11-10T01:10:08.816Z,211.30
2018-11-10T01:11:08.794Z,190.40
2018-11-10T01:12:08.768Z,278.80
2018-11-10T01:13:08.744Z,237.70
2018-11-10T01:14:08.720Z,190.20
2018-11-10T01:15:08.695Z,185.10
2018-11-10T01:16:08.671Z,266.80
2018-11-10T01:17:08.649Z,194.90
2018-11-10T01:18:08.622Z,284.80
2018-11-10T01:19:08.598Z,194.90
2018-11-10T01:20:08.577Z,180.40
2018-11-10T01:21:08.549Z,199.20
2018-11-10T01:22:08.525Z,308.60
2018-11-10T01:23:08.508Z,327.20
2018-11-10T01:24:08.475Z,257.30
2018-11-10T01:25:08.450Z,199.10
2018-11-10T01:26:08.425Z,195.60
2018-11-10T01:27:08.401Z,243.70
2018-11-10T01:28:08.378Z,261.90
2018-11-10T01:29:08.352Z,228.10
2018-11-10T01:30:08.327Z,227.10
2018-11-10T01:31:08.303Z,193.10
2018-11-10T01:32:08.280Z,196.60
2018-11-10T01:33:08.253Z,236.40
2018-11-10T01:34:08.229Z,279.50
2018-11-10T01:35:08.205Z,230.30
2018-11-10T01:36:08.180Z,170.50
2018-11-10T01:37:08.155Z,222.60
2018-11-10T01:38:08.132Z,238.00
2018-11-10T01:39:08.106Z,200.00
2018-11-10T01:40:08.082Z,179.00
2018-11-10T01:41:08.056Z,218.20
2018-11-10T01:42:08.033Z,188.40
2018-11-10T01:43:08.008Z,182.10
2018-11-10T01:44:07.985Z,161.90
2018-11-10T01:45:07.960Z,181.50
2018-11-10T01:46:07.935Z,223.40
2018-11-10T01:47:07.910Z,239.30
2018-11-10T01:48:07.886Z,186.70
2018-11-10T01:49:07.862Z,191.10
2018-11-10T01:50:07.836Z,157.80
2018-11-10T01:51:07.811Z,190.70
2018-11-10T01:52:07.789Z,166.10
2018-11-10T01:53:07.762Z,153.80
2018-11-10T01:54:07.738Z,155.70
2018-11-10T01:55:07.713Z,185.60
2018-11-10T01:56:07.690Z,245.30
2018-11-10T01:57:07.663Z,190.60
2018-11-10T01:58:07.640Z,172.00
2018-11-10T01:59:07.616Z,190.00
2018-11-10T02:00:07.591Z,188.00
2018-11-10T02:01:07.568Z,175.90
2018-11-10T02:02:07.543Z,189.50
2018-11-10T02:03:07.518Z,174.50
2018-11-10T02:04:07.493Z,163.20
2018-11-10T02:05:07.468Z,148.90
2018-11-10T02:06:07.443Z,131.70
2018-11-10T02:07:07.420Z,126.40
2018-11-10T02:08:07.396Z,122.50
2018-11-10T02:09:07.369Z,133.80
2018-11-10T02:10:07.346Z,117.10
2018-11-10T02:11:07.321Z,119.30
2018-11-10T02:12:07.297Z,134.70
2018-11-10T02:13:07.271Z,120.80
2018-11-10T02:14:07.247Z,124.30
2018-11-10T02:15:07.222Z,108.90
2018-11-10T02:16:07.198Z,114.70
2018-11-10T02:17:07.172Z,123.80
2018-11-10T02:18:07.148Z,118.10
2018-11-10T02:19:07.124Z,130.80
2018-11-10T02:20:07.099Z,112.60
2018-11-10T02:21:07.075Z,111.80
2018-11-10T02:22:07.049Z,105.90
2018-11-10T02:23:07.025Z,103.50
2018-11-10T02:24:07.000Z,108.30
2018-11-10T02:25:06.976Z,114.90
2018-11-10T02:26:06.951Z,118.00
2018-11-10T02:27:06.926Z,120.70
2018-11-10T02:28:06.903Z,117.00
2018-11-10T02:29:06.877Z,120.10
2018-11-10T02:30:06.854Z,119.70
2018-11-10T02:31:06.827Z,131.50
2018-11-10T02:32:06.803Z,123.30
2018-11-10T02:33:06.777Z,110.20
2018-11-10T02:34:06.753Z,109.80
2018-11-10T02:35:06.733Z,97.00
2018-11-10T02:36:06.708Z,88.10
2018-11-10T02:37:06.684Z,99.80
2018-11-10T02:38:06.657Z,85.30
2018-11-10T02:39:06.632Z,84.10
2018-11-10T02:40:06.607Z,74.80
2018-11-10T02:41:06.581Z,78.60
2018-11-10T02:42:06.556Z,75.10
2018-11-10T02:43:06.533Z,72.70
2018-11-10T02:44:06.506Z,83.50
2018-11-10T02:45:06.481Z,82.00
2018-11-10T02:46:06.457Z,86.70
2018-11-10T02:47:06.435Z,87.00
2018-11-10T02:48:06.408Z,94.60
2018-11-10T02:49:06.382Z,93.10
2018-11-10T02:50:06.361Z,95.60
2018-11-10T02:51:06.334Z,96.80
2018-11-10T02:52:06.309Z,97.60
2018-11-10T02:53:06.288Z,89.10
2018-11-10T02:54:06.264Z,106.00
2018-11-10T02:55:06.985Z,104.40
2018-11-10T02:56:06.210Z,94.70
2018-11-10T02:57:06.185Z,98.60
2018-11-10T02:58:06.160Z,92.40
2018-11-10T02:59:06.136Z,97.10
2018-11-10T03:00:06.115Z,90.70
2018-11-10T03:01:06.088Z,87.70
2018-11-10T03:02:06.064Z,85.20
2018-11-10T03:03:06.040Z,91.20
2018-11-10T03:04:06.013Z,102.10
2018-11-10T03:05:05.989Z,99.80
2018-11-10T03:06:05.969Z,107.80
2018-11-10T03:07:05.944Z,100.30
2018-11-10T03:08:05.926Z,106.80
2018-11-10T03:09:05.890Z,87.20
2018-11-10T03:10:05.865Z,89.50
2018-11-10T03:11:05.843Z,107.00
2018-11-10T03:12:05.816Z,100.30
2018-11-10T03:13:05.791Z,107.80
2018-11-10T03:14:05.766Z,115.00
2018-11-10T03:15:05.742Z,97.30
2018-11-10T03:16:05.719Z,92.20
2018-11-10T03:17:06.443Z,92.80
2018-11-10T03:18:05.668Z,95.70
2018-11-10T03:19:05.646Z,105.20
2018-11-10T03:20:05.620Z,93.80
2018-11-10T03:21:05.596Z,96.70
2018-11-10T03:22:05.570Z,83.80
2018-11-10T03:23:05.545Z,85.90
2018-11-10T03:24:05.521Z,86.00
2018-11-10T03:25:05.495Z,85.90
2018-11-10T03:26:05.472Z,80.90
2018-11-10T03:27:05.447Z,80.80
2018-11-10T03:28:05.427Z,98.40
2018-11-10T03:29:05.397Z,97.70
2018-11-10T03:30:05.373Z,107.30
2018-11-10T03:31:05.349Z,96.70
2018-11-10T03:32:05.325Z,97.60
2018-11-10T03:33:05.300Z,102.60
2018-11-10T03:34:05.273Z,102.80
2018-11-10T03:35:05.250Z,110.00
2018-11-10T03:36:05.226Z,100.00
2018-11-10T03:37:05.199Z,100.00
2018-11-10T03:38:05.177Z,103.70
2018-11-10T03:39:05.151Z,89.70
2018-11-10T03:40:05.127Z,92.80
2018-11-10T03:41:05.102Z,94.80
2018-11-10T03:42:05.076Z,88.60
2018-11-10T03:43:05.053Z,92.50
2018-11-10T03:44:05.029Z,88.10
2018-11-10T03:45:05.003Z,91.80
2018-11-10T03:46:04.980Z,97.40
2018-11-10T03:47:04.955Z,115.90
2018-11-10T03:48:05.681Z,109.90
2018-11-10T03:49:04.905Z,90.20
2018-11-10T03:50:04.879Z,99.60
2018-11-10T03:51:04.855Z,91.70
2018-11-10T03:52:04.832Z,95.00
2018-11-10T03:53:04.805Z,90.90
2018-11-10T03:54:04.781Z,85.50
2018-11-10T03:55:04.757Z,86.60
2018-11-10T03:56:04.733Z,85.70
2018-11-10T03:57:04.709Z,84.50
2018-11-10T03:58:04.685Z,74.40
2018-11-10T03:59:04.661Z,79.50
2018-11-10T04:01:04.611Z,80.10
2018-11-10T04:02:04.586Z,82.60
2018-11-10T04:03:04.562Z,76.40
2018-11-10T04:04:04.539Z,74.60
2018-11-10T04:05:04.516Z,76.20
2018-11-10T04:06:04.488Z,94.30
2018-11-10T04:07:04.464Z,97.30
2018-11-10T04:08:04.439Z,94.60
2018-11-10T04:09:04.416Z,94.90
2018-11-10T04:10:04.392Z,103.00
2018-11-10T04:11:04.367Z,89.00
2018-11-10T04:12:04.342Z,85.90
2018-11-10T04:13:04.321Z,88.60
2018-11-10T04:14:04.293Z,80.40
2018-11-10T04:15:05.020Z,68.90
2018-11-10T04:16:04.244Z,108.20
2018-11-10T04:17:04.220Z,131.40
2018-11-10T04:18:04.197Z,138.40
2018-11-10T04:19:04.172Z,82.90
2018-11-10T04:20:04.147Z,70.00
2018-11-10T04:21:04.121Z,66.10
2018-11-10T04:22:04.097Z,102.70
2018-11-10T04:23:04.072Z,75.80
2018-11-10T04:24:04.049Z,60.90
2018-11-10T04:25:04.023Z,65.10
2018-11-10T04:26:04.000Z,61.30
2018-11-10T04:27:03.978Z,58.90
2018-11-10T04:28:03.979Z,77.00
2018-11-10T04:29:03.924Z,61.70
2018-11-10T04:30:03.901Z,89.60
2018-11-10T04:31:03.875Z,63.30
2018-11-10T04:32:03.852Z,78.00
2018-11-10T04:33:03.826Z,70.40
2018-11-10T04:34:03.802Z,74.20
2018-11-10T04:35:03.777Z,106.30
2018-11-10T04:36:03.751Z,78.30
2018-11-10T04:37:03.727Z,60.20
2018-11-10T04:38:03.702Z,62.50
2018-11-10T04:39:03.676Z,60.20
2018-11-10T04:40:03.652Z,65.40
2018-11-10T04:41:03.626Z,64.50
2018-11-10T04:42:03.601Z,85.10
2018-11-10T04:43:03.607Z,77.60
2018-11-10T04:44:03.552Z,59.00
2018-11-10T04:45:03.525Z,62.00
2018-11-10T04:46:03.502Z,55.00
2018-11-10T04:47:03.477Z,62.00
2018-11-10T04:48:03.451Z,60.10
2018-11-10T04:49:03.440Z,58.30
2018-11-10T04:50:03.412Z,58.30
2018-11-10T04:51:03.380Z,53.80
2018-11-10T04:52:03.351Z,54.70
2018-11-10T04:53:03.325Z,62.40
2018-11-10T04:54:03.301Z,51.30
2018-11-10T04:55:03.280Z,50.70
2018-11-10T04:56:03.252Z,55.40
2018-11-10T04:57:03.237Z,52.60
2018-11-10T04:58:03.201Z,51.80
2018-11-10T04:59:03.175Z,52.80
2018-11-10T05:00:03.150Z,54.70
2018-11-10T05:01:03.124Z,51.80
2018-11-10T05:02:03.099Z,54.50
2018-11-10T05:03:03.074Z,57.00
2018-11-10T05:04:03.049Z,55.30
2018-11-10T05:05:03.024Z,51.20
2018-11-10T05:06:02.999Z,56.00
2018-11-10T05:07:02.974Z,51.90
2018-11-10T05:08:02.949Z,55.70
2018-11-10T05:09:02.923Z,55.90
2018-11-10T05:10:02.901Z,51.60
2018-11-10T05:11:02.878Z,54.70
2018-11-10T05:12:02.849Z,54.80
2018-11-10T05:13:02.823Z,52.10
2018-11-10T05:14:02.799Z,55.60
2018-11-10T05:15:02.774Z,54.70
2018-11-10T05:16:02.751Z,53.00
2018-11-10T05:17:02.723Z,60.50
2018-11-10T05:18:02.697Z,57.00
2018-11-10T05:19:02.672Z,55.90
2018-11-10T05:20:02.647Z,57.50
2018-11-10T05:21:02.622Z,54.90
2018-11-10T05:22:02.598Z,56.20
2018-11-10T05:23:02.571Z,51.10
2018-11-10T05:24:02.547Z,56.70
2018-11-10T05:25:02.522Z,56.60
2018-11-10T05:26:02.497Z,57.50
2018-11-10T05:27:02.472Z,56.30
2018-11-10T05:28:02.447Z,51.60
2018-11-10T05:29:02.420Z,53.60
2018-11-10T05:30:02.396Z,51.80
2018-11-10T05:31:02.409Z,58.40
2018-11-10T05:32:02.347Z,60.80
2018-11-10T05:33:02.319Z,59.60
2018-11-10T05:34:03.050Z,59.10
2018-11-10T05:35:02.272Z,66.20
2018-11-10T05:36:02.247Z,67.60
2018-11-10T05:37:02.222Z,69.40
2018-11-10T05:38:02.201Z,66.90
2018-11-10T05:39:02.172Z,66.00
2018-11-10T05:40:02.152Z,69.10
2018-11-10T05:41:02.126Z,61.80
2018-11-10T05:42:02.102Z,64.10
2018-11-10T05:43:02.072Z,63.50
2018-11-10T05:44:02.050Z,61.10
2018-11-10T05:45:02.022Z,59.40
2018-11-10T05:46:01.999Z,57.80
2018-11-10T05:47:01.976Z,60.30
2018-11-10T05:48:01.953Z,58.50
2018-11-10T05:49:01.924Z,56.40
2018-11-10T05:50:03.401Z,54.10
2018-11-10T05:51:01.876Z,53.20
2018-11-10T05:52:01.852Z,56.70
2018-11-10T05:53:01.828Z,55.60
2018-11-10T05:54:01.802Z,61.40
2018-11-10T05:55:01.780Z,61.50
2018-11-10T05:56:01.753Z,63.20
2018-11-10T05:57:01.758Z,61.60
2018-11-10T05:58:01.703Z,64.10
2018-11-10T05:59:01.678Z,62.80
2018-11-10T06:00:01.655Z,60.20
2018-11-10T06:01:01.630Z,63.30
2018-11-10T06:02:01.603Z,63.00
2018-11-10T06:03:01.642Z,60.80
2018-11-10T06:04:01.555Z,63.00
2018-11-10T06:05:01.530Z,58.20
2018-11-10T06:06:01.506Z,69.20
2018-11-10T06:07:01.481Z,64.90
2018-11-10T06:08:01.457Z,69.20
2018-11-10T06:09:01.464Z,67.20
2018-11-10T06:10:01.536Z,66.50
2018-11-10T06:11:01.384Z,65.80
2018-11-10T06:12:02.109Z,67.10
2018-11-10T06:13:01.333Z,63.40
2018-11-10T06:14:01.309Z,67.40
2018-11-10T06:15:01.286Z,62.70
2018-11-10T06:16:01.303Z,60.90
2018-11-10T06:17:01.235Z,67.10
2018-11-10T06:18:01.210Z,63.90
2018-11-10T06:19:01.309Z,65.60
2018-11-10T06:20:01.162Z,76.50
2018-11-10T06:21:01.141Z,62.30
2018-11-10T06:22:01.113Z,67.00
2018-11-10T06:23:01.088Z,71.20
2018-11-10T06:24:01.064Z,67.40
2018-11-10T06:25:01.038Z,72.50
2018-11-10T06:26:01.029Z,70.30
2018-11-10T06:27:00.991Z,73.20
2018-11-10T06:28:00.975Z,74.80
2018-11-10T06:29:00.939Z,68.00
2018-11-10T06:30:00.916Z,72.00
2018-11-10T06:31:00.891Z,78.10
2018-11-10T06:32:00.868Z,72.60
2018-11-10T06:33:00.852Z,66.60
2018-11-10T06:34:00.817Z,66.80
2018-11-10T06:35:00.840Z,78.70
2018-11-10T06:36:00.768Z,81.20
2018-11-10T06:37:00.743Z,80.20
2018-11-10T06:38:00.719Z,72.50
2018-11-10T06:39:00.695Z,77.10
2018-11-10T06:40:00.669Z,71.20
2018-11-10T06:41:00.644Z,70.80
2018-11-10T06:42:00.620Z,71.90
2018-11-10T06:43:00.598Z,70.00
2018-11-10T06:44:00.571Z,71.60
2018-11-10T06:45:00.545Z,75.40
2018-11-10T06:46:00.521Z,77.70
2018-11-10T06:47:00.502Z,81.10
2018-11-10T06:48:00.472Z,81.50
2018-11-10T06:49:00.447Z,80.90
2018-11-10T06:50:00.425Z,75.20
2018-11-10T06:51:00.400Z,83.30
2018-11-10T06:52:00.375Z,80.90
2018-11-10T06:53:00.479Z,79.30
2018-11-10T06:54:00.325Z,86.30
2018-11-10T06:55:00.302Z,79.70
2018-11-10T06:56:00.274Z,83.40
2018-11-10T06:57:00.250Z,85.20
2018-11-10T06:58:00.226Z,79.40
2018-11-10T06:59:00.200Z,79.80
2018-11-10T07:00:00.179Z,76.60
2018-11-10T07:01:00.154Z,76.80
2018-11-10T07:02:00.125Z,75.30
2018-11-10T07:03:00.101Z,74.10
2018-11-10T07:04:00.081Z,76.90
2018-11-10T07:05:00.052Z,64.10
2018-11-10T07:06:06.034Z,65.80
2018-11-10T07:07:00.006Z,70.90
2018-11-10T07:07:59.979Z,71.40
2018-11-10T07:08:59.956Z,65.70
2018-11-10T07:09:59.929Z,87.20
2018-11-10T07:10:59.903Z,72.20
2018-11-10T07:11:59.882Z,71.80
2018-11-10T07:12:59.853Z,71.40
2018-11-10T07:13:59.830Z,67.80
2018-11-10T07:14:59.804Z,72.80
2018-11-10T07:15:59.782Z,70.50
2018-11-10T07:16:59.755Z,74.90
2018-11-10T07:17:59.894Z,72.20
2018-11-10T07:18:59.712Z,77.20
2018-11-10T07:19:59.682Z,86.30
2018-11-10T07:20:59.657Z,78.00
2018-11-10T07:21:59.631Z,68.90
2018-11-10T07:22:59.607Z,65.90
2018-11-10T07:23:59.584Z,68.70
2018-11-10T07:24:59.618Z,64.20
2018-11-10T07:25:59.532Z,71.50
2018-11-10T07:26:59.508Z,67.80
2018-11-10T07:27:59.491Z,79.90
2018-11-10T07:28:59.459Z,69.20
2018-11-10T07:29:59.435Z,66.90
2018-11-10T07:30:59.409Z,73.80
2018-11-10T07:31:59.430Z,65.10
2018-11-10T07:32:59.369Z,63.70
2018-11-10T07:33:59.334Z,62.60
2018-11-10T07:34:59.309Z,59.40
2018-11-10T07:35:59.284Z,50.40
2018-11-10T07:36:59.259Z,64.90
2018-11-10T07:37:59.236Z,62.90
2018-11-10T07:38:59.961Z,98.70
2018-11-10T07:39:59.186Z,75.80
2018-11-10T07:40:59.161Z,69.30
2018-11-10T07:41:59.135Z,72.70
2018-11-10T07:42:59.158Z,61.40
2018-11-10T07:43:59.086Z,62.50
2018-11-10T07:44:59.061Z,64.20
2018-11-10T07:45:59.036Z,65.30
2018-11-10T07:46:59.011Z,57.60
2018-11-10T07:47:58.986Z,56.00
2018-11-10T07:48:58.960Z,65.60
2018-11-10T07:49:59.688Z,57.70
2018-11-10T07:50:58.913Z,64.60
2018-11-10T07:51:58.890Z,78.70
2018-11-10T07:52:58.860Z,62.80
2018-11-10T07:53:58.836Z,54.30
2018-11-10T07:54:58.811Z,54.80
2018-11-10T07:55:58.843Z,48.60
2018-11-10T07:56:58.762Z,48.00
2018-11-10T07:57:58.737Z,50.00
2018-11-10T07:58:58.711Z,47.20
2018-11-10T07:59:58.687Z,47.50
2018-11-10T08:00:58.661Z,52.80
2018-11-10T08:01:58.636Z,49.20
2018-11-10T08:02:58.611Z,54.10
2018-11-10T08:03:58.588Z,50.90
2018-11-10T08:04:58.561Z,50.60
2018-11-10T08:05:58.539Z,51.70
2018-11-10T08:06:58.513Z,54.20
2018-11-10T08:07:58.487Z,49.40
2018-11-10T08:08:58.462Z,51.60
2018-11-10T08:09:58.437Z,52.40
2018-11-10T08:10:58.413Z,49.00
2018-11-10T08:11:58.458Z,48.20
2018-11-10T08:12:58.363Z,50.90
2018-11-10T08:13:58.339Z,50.80
2018-11-10T08:14:58.313Z,46.80
2018-11-10T08:15:58.288Z,42.70
2018-11-10T08:16:58.263Z,46.60
2018-11-10T08:17:58.240Z,50.60
2018-11-10T08:18:58.214Z,45.70
2018-11-10T08:19:58.190Z,45.10
2018-11-10T08:20:58.915Z,41.50
2018-11-10T08:21:58.139Z,42.60
2018-11-10T08:22:58.118Z,40.20
2018-11-10T08:23:58.090Z,43.00
2018-11-10T08:24:58.107Z,43.00
2018-11-10T08:25:58.043Z,45.00
2018-11-10T08:26:58.016Z,44.90
2018-11-10T08:27:57.990Z,46.20
2018-11-10T08:28:57.965Z,43.90
2018-11-10T08:29:57.942Z,39.70
2018-11-10T08:30:57.971Z,41.60
2018-11-10T08:31:59.394Z,40.70
2018-11-10T08:32:57.866Z,40.40
2018-11-10T08:33:57.842Z,40.20
2018-11-10T08:34:57.817Z,40.50
2018-11-10T08:35:57.792Z,36.20
2018-11-10T08:36:57.766Z,37.50
2018-11-10T08:37:59.993Z,36.50
2018-11-10T08:38:57.766Z,33.40
2018-11-10T08:39:57.692Z,36.50
2018-11-10T08:40:57.668Z,33.80
2018-11-10T08:41:57.642Z,28.30
2018-11-10T08:42:57.617Z,28.10
2018-11-10T08:43:58.351Z,27.60
2018-11-10T08:44:57.568Z,28.00
2018-11-10T08:45:57.544Z,26.80
2018-11-10T08:46:57.518Z,33.90
2018-11-10T08:47:57.494Z,28.10
2018-11-10T08:48:57.521Z,28.60
2018-11-10T08:49:57.450Z,32.50
2018-11-10T08:50:57.421Z,29.90
2018-11-10T08:51:57.397Z,29.40
2018-11-10T08:52:57.371Z,29.50
2018-11-10T08:53:57.348Z,27.30
2018-11-10T08:54:57.324Z,29.70
2018-11-10T08:55:57.300Z,31.50
2018-11-10T08:56:57.275Z,32.90
2018-11-10T08:57:57.250Z,28.70
2018-11-10T08:58:57.279Z,32.10
2018-11-10T08:59:57.201Z,29.20
2018-11-10T09:00:57.180Z,28.90
2018-11-10T09:01:57.152Z,31.90
2018-11-10T09:02:57.128Z,27.40
2018-11-10T09:03:57.104Z,30.90
2018-11-10T09:04:57.079Z,29.70
2018-11-10T09:05:57.059Z,28.30
2018-11-10T09:06:57.033Z,26.70
2018-11-10T09:07:57.007Z,25.60
2018-11-10T09:08:56.985Z,24.50
2018-11-10T09:09:57.053Z,24.90
2018-11-10T09:10:56.935Z,26.10
2018-11-10T09:11:56.914Z,28.40
2018-11-10T09:12:56.904Z,27.70
2018-11-10T09:13:56.866Z,24.80
2018-11-10T09:14:56.857Z,24.70
2018-11-10T09:15:56.815Z,25.20
2018-11-10T09:16:56.791Z,23.80
2018-11-10T09:17:56.871Z,22.00
2018-11-10T09:18:56.745Z,20.80
2018-11-10T09:19:56.721Z,22.00
2018-11-10T09:20:56.743Z,22.40
2018-11-10T09:21:56.672Z,22.30
2018-11-10T09:22:56.649Z,21.20
2018-11-10T09:23:56.625Z,20.20
2018-11-10T09:24:56.603Z,21.00
2018-11-10T09:25:56.579Z,19.20
2018-11-10T09:26:56.553Z,20.60
2018-11-10T09:27:56.531Z,22.10
2018-11-10T09:28:56.506Z,19.20
2018-11-10T09:29:56.488Z,18.00
2018-11-10T09:30:56.519Z,18.20
2018-11-10T09:31:56.436Z,17.20
2018-11-10T09:32:56.411Z,18.30
2018-11-10T09:33:56.389Z,18.60
2018-11-10T09:34:56.365Z,18.00
2018-11-10T09:35:56.342Z,19.20
2018-11-10T09:36:56.322Z,16.70
2018-11-10T09:37:59.297Z,16.00
2018-11-10T09:38:56.272Z,15.10
2018-11-10T09:39:56.250Z,18.00
2018-11-10T09:40:56.223Z,15.40
2018-11-10T09:41:56.268Z,16.90
2018-11-10T09:42:56.180Z,15.50
2018-11-10T09:43:56.154Z,16.50
2018-11-10T09:44:56.129Z,16.10
2018-11-10T09:45:56.107Z,16.70
2018-11-10T09:46:56.085Z,16.20
2018-11-10T09:47:56.061Z,17.90
2018-11-10T09:48:56.037Z,18.00
2018-11-10T09:49:56.099Z,19.90
2018-11-10T09:50:55.996Z,18.00
2018-11-10T09:51:55.967Z,17.50
2018-11-10T09:52:55.942Z,18.50
2018-11-10T09:53:55.919Z,21.10
2018-11-10T09:54:56.648Z,21.90
2018-11-10T09:55:55.873Z,22.90
2018-11-10T09:56:55.862Z,20.40
2018-11-10T09:57:55.827Z,19.80
2018-11-10T09:58:55.805Z,21.50
2018-11-10T09:59:55.783Z,22.10
2018-11-10T10:00:55.789Z,22.50
2018-11-10T10:01:56.006Z,18.10
2018-11-10T10:02:55.710Z,19.20
2018-11-10T10:03:55.687Z,20.80
2018-11-10T10:04:55.664Z,17.90
2018-11-10T10:05:55.643Z,17.60
2018-11-10T10:06:55.620Z,16.90
2018-11-10T10:07:55.656Z,17.80
2018-11-10T10:08:55.728Z,16.50
2018-11-10T10:09:55.550Z,17.40
2018-11-10T10:10:55.529Z,15.60
2018-11-10T10:11:55.503Z,19.30
2018-11-10T10:12:55.480Z,19.30
2018-11-10T10:13:55.457Z,19.40
2018-11-10T10:14:55.435Z,19.90
2018-11-10T10:15:55.469Z,19.90
2018-11-10T10:16:56.140Z,20.00
2018-11-10T10:17:55.367Z,20.60
2018-11-10T10:18:55.346Z,21.20
2018-11-10T10:19:55.322Z,22.00
2018-11-10T10:20:55.299Z,19.50
2018-11-10T10:21:55.305Z,19.90
2018-11-10T10:22:55.256Z,20.70
2018-11-10T10:23:55.233Z,21.00
2018-11-10T10:24:55.210Z,19.20
2018-11-10T10:25:55.189Z,20.80
2018-11-10T10:26:55.166Z,20.80
2018-11-10T10:27:55.143Z,19.50
2018-11-10T10:28:55.178Z,19.50
2018-11-10T10:29:55.098Z,19.40
2018-11-10T10:30:55.077Z,21.30
2018-11-10T10:31:55.055Z,22.40
2018-11-10T10:32:55.034Z,19.80
2018-11-10T10:33:55.082Z,22.20
2018-11-10T10:34:55.047Z,19.10
2018-11-10T10:35:54.968Z,22.20
2018-11-10T10:36:54.944Z,20.50
2018-11-10T10:37:55.680Z,22.50
2018-11-10T10:38:54.902Z,18.10
2018-11-10T10:39:54.880Z,21.10
2018-11-10T10:40:54.857Z,23.70
2018-11-10T10:41:54.835Z,22.10
2018-11-10T10:42:54.931Z,19.30
2018-11-10T10:43:54.792Z,20.20
2018-11-10T10:44:54.770Z,21.80
2018-11-10T10:45:54.749Z,19.60
2018-11-10T10:46:54.726Z,20.70
2018-11-10T10:47:54.705Z,20.80
2018-11-10T10:48:57.888Z,19.90
2018-11-10T10:49:54.660Z,18.60
2018-11-10T10:50:54.641Z,19.60
2018-11-10T10:51:54.617Z,19.30
2018-11-10T10:52:54.595Z,27.70
2018-11-10T10:53:54.573Z,29.70
2018-11-10T10:54:54.552Z,22.50
2018-11-10T10:55:54.648Z,22.50
2018-11-10T10:56:54.574Z,22.70
2018-11-10T10:57:54.491Z,22.90
2018-11-10T10:58:54.465Z,23.50
2018-11-10T10:59:54.446Z,21.80
2018-11-10T11:00:54.421Z,20.60
2018-11-10T11:01:54.400Z,25.10
2018-11-10T11:02:54.498Z,24.80
2018-11-10T11:03:54.357Z,22.50
2018-11-10T11:04:54.338Z,21.20
2018-11-10T11:05:54.315Z,21.30
2018-11-10T11:06:54.292Z,21.00
2018-11-10T11:07:54.272Z,20.60
2018-11-10T11:08:54.337Z,22.60
2018-11-10T11:09:54.227Z,23.30
2018-11-10T11:10:54.205Z,21.00
2018-11-10T11:11:54.184Z,22.40
2018-11-10T11:12:54.163Z,22.00
2018-11-10T11:13:54.142Z,21.10
2018-11-10T11:14:54.140Z,21.90
2018-11-10T11:15:54.242Z,20.20
2018-11-10T11:16:54.076Z,21.50
2018-11-10T11:17:54.057Z,22.40
2018-11-10T11:18:54.034Z,22.80
2018-11-10T11:19:54.011Z,22.00
2018-11-10T11:20:53.989Z,21.70
2018-11-10T11:21:54.015Z,21.00
2018-11-10T11:22:53.946Z,20.90
2018-11-10T11:23:53.925Z,21.30
2018-11-10T11:24:53.903Z,21.80
2018-11-10T11:25:53.883Z,22.10
2018-11-10T11:26:53.860Z,21.50
2018-11-10T11:27:53.839Z,22.30
2018-11-10T11:28:53.817Z,20.60
2018-11-10T11:29:53.797Z,20.10
2018-11-10T11:30:53.774Z,20.80
2018-11-10T11:31:53.752Z,19.80
2018-11-10T11:32:53.731Z,22.00
2018-11-10T11:33:53.740Z,20.30
2018-11-10T11:34:53.689Z,22.70
2018-11-10T11:35:53.666Z,23.70
2018-11-10T11:36:53.645Z,22.10
2018-11-10T11:37:53.622Z,20.20
2018-11-10T11:38:53.600Z,21.60
2018-11-10T11:39:53.581Z,21.70
2018-11-10T11:40:53.560Z,23.60
2018-11-10T11:41:53.592Z,21.50
2018-11-10T11:42:53.513Z,23.60
2018-11-10T11:43:53.492Z,21.60
2018-11-10T11:44:53.472Z,22.40
2018-11-10T11:45:53.448Z,21.40
2018-11-10T11:46:53.427Z,21.80
2018-11-10T11:47:53.405Z,23.70
2018-11-10T11:48:53.383Z,22.80
2018-11-10T11:49:53.415Z,22.60
2018-11-10T11:50:53.341Z,22.00
2018-11-10T11:51:53.319Z,23.70
2018-11-10T11:52:53.296Z,21.30
2018-11-10T11:53:53.274Z,22.50
2018-11-10T11:54:53.254Z,21.70
2018-11-10T11:55:53.242Z,21.10
2018-11-10T11:56:53.218Z,23.00
2018-11-10T11:57:53.342Z,19.60
2018-11-10T11:58:53.170Z,21.70
2018-11-10T11:59:53.148Z,21.50
2018-11-10T12:00:53.123Z,20.80
2018-11-10T12:01:53.107Z,22.40
2018-11-10T12:02:53.083Z,21.40
2018-11-10T12:03:53.061Z,19.80
2018-11-10T12:04:53.042Z,20.70
2018-11-10T12:05:53.019Z,21.40
2018-11-10T12:06:52.994Z,20.30
2018-11-10T12:07:52.973Z,21.80
2018-11-10T12:08:52.951Z,21.50
2018-11-10T12:09:52.933Z,19.70
2018-11-10T12:10:52.911Z,20.20
2018-11-10T12:11:52.887Z,20.90
2018-11-10T12:12:52.866Z,19.00
2018-11-10T12:13:52.845Z,21.70
2018-11-10T12:14:52.825Z,19.90
2018-11-10T12:15:52.804Z,23.70
2018-11-10T12:16:52.789Z,21.90
2018-11-10T12:17:52.760Z,21.70
2018-11-10T12:18:52.739Z,20.30
2018-11-10T12:19:52.726Z,20.00
2018-11-10T12:20:52.747Z,20.70
2018-11-10T12:21:52.702Z,19.50
2018-11-10T12:22:52.655Z,21.90
2018-11-10T12:23:52.635Z,20.70
2018-11-10T12:24:52.610Z,29.90
2018-11-10T12:25:52.590Z,25.50
2018-11-10T12:26:52.612Z,20.10
2018-11-10T12:27:52.549Z,21.60
2018-11-10T12:28:52.526Z,21.80
2018-11-10T12:29:52.504Z,23.10
2018-11-10T12:30:52.485Z,23.10
2018-11-10T12:31:52.522Z,22.30
2018-11-10T12:32:52.440Z,20.40
2018-11-10T12:33:52.419Z,21.40
2018-11-10T12:34:52.398Z,21.50
2018-11-10T12:35:52.377Z,20.30
2018-11-10T12:36:52.355Z,21.50
2018-11-10T12:37:52.336Z,20.50
2018-11-10T12:38:52.372Z,24.50
2018-11-10T12:39:52.294Z,20.90
2018-11-10T12:40:52.272Z,19.10
2018-11-10T12:41:52.249Z,19.60
2018-11-10T12:42:52.229Z,19.80
2018-11-10T12:43:52.208Z,23.40
2018-11-10T12:44:52.186Z,24.20
2018-11-10T12:45:52.167Z,21.70
2018-11-10T12:46:52.144Z,22.80